Time;durP1;ratioP1;P1;durP2;ratioP2;P2;SDS_P1;SDS_P2;PMS_P1;PMS_P2;Temp;Humidity;BMP_temperature;BMP_pressure;BME280_temperature;BME280_humidity;BME280_pressure;Samples;Min_cycle;Max_cycle;Signal;HPM_P1;HPM_P2
2022/11/09 00:00:53;;;;;;;62.03;19.27;;;9.20;99.90;;;;;;5077152;28;20553;-76
2022/11/09 00:03:20;;;;;;;59.50;18.50;;;9.20;99.90;;;;;;5076897;28;20043;-76
2022/11/09 00:05:58;;;;;;;56.95;17.02;;;9.20;99.90;;;;;;5085230;28;20044;-76
2022/11/09 00:08:26;;;;;;;56.97;18.17;;;9.20;99.90;;;;;;5080296;28;20046;-76
2022/11/09 00:10:53;;;;;;;61.95;20.27;;;9.20;99.90;;;;;;5062778;28;20097;-76
2022/11/09 00:13:21;;;;;;;59.80;19.05;;;9.20;99.90;;;;;;5075931;28;20146;-76
2022/11/09 00:15:48;;;;;;;64.80;20.08;;;9.10;99.90;;;;;;5083232;28;20036;-76
2022/11/09 00:18:15;;;;;;;60.88;18.55;;;9.20;99.90;;;;;;5076295;28;20036;-76
2022/11/09 00:20:42;;;;;;;54.40;17.65;;;9.20;99.90;;;;;;5079228;28;20503;-76
2022/11/09 00:23:15;;;;;;;56.40;17.60;;;9.20;99.90;;;;;;5078838;28;20036;-76
2022/11/09 00:25:42;;;;;;;66.07;19.23;;;9.20;99.90;;;;;;5076709;28;20059;-76
2022/11/09 00:28:09;;;;;;;54.60;17.65;;;9.10;99.90;;;;;;5082285;28;20078;-75
2022/11/09 00:30:36;;;;;;;56.30;18.33;;;9.10;99.90;;;;;;5079664;28;20105;-76
2022/11/09 00:33:03;;;;;;;56.50;18.88;;;9.10;99.90;;;;;;5063355;28;20453;-75
2022/11/09 00:35:31;;;;;;;50.13;17.50;;;9.10;99.90;;;;;;5064974;28;20044;-76
2022/11/09 00:37:58;;;;;;;54.95;17.80;;;9.10;99.90;;;;;;5076971;28;20059;-76
2022/11/09 00:40:25;;;;;;;62.80;18.38;;;9.10;99.90;;;;;;5075566;28;20604;-76
2022/11/09 00:42:52;;;;;;;48.97;15.93;;;9.10;99.90;;;;;;5074541;28;20354;-76
2022/11/09 00:45:19;;;;;;;58.88;18.48;;;9.10;99.90;;;;;;5080176;28;20032;-76
2022/11/09 00:47:46;;;;;;;60.80;19.45;;;9.10;99.90;;;;;;5064229;28;20064;-76
2022/11/09 00:50:13;;;;;;;51.13;15.45;;;9.10;99.90;;;;;;5084074;28;20059;-76
2022/11/09 00:52:41;;;;;;;50.72;16.55;;;9.10;99.90;;;;;;5085614;28;20097;-75
2022/11/09 00:55:08;;;;;;;47.75;16.67;;;9.10;99.90;;;;;;5077593;28;20036;-75
2022/11/09 00:57:35;;;;;;;50.45;17.15;;;9.10;99.90;;;;;;5062106;28;20098;-76
2022/11/09 01:00:03;;;;;;;51.35;16.92;;;9.00;99.90;;;;;;5075792;28;20043;-75
2022/11/09 01:02:30;;;;;;;44.80;14.05;;;9.00;99.90;;;;;;5092272;28;20490;-75
2022/11/09 01:04:58;;;;;;;50.35;15.52;;;9.00;99.90;;;;;;5073604;28;20040;-75
2022/11/09 01:07:25;;;;;;;44.40;14.38;;;9.00;99.90;;;;;;5080564;28;20926;-75
2022/11/09 01:09:52;;;;;;;44.83;13.35;;;9.00;99.90;;;;;;5080763;28;20148;-75
2022/11/09 01:12:23;;;;;;;46.67;15.45;;;9.00;99.90;;;;;;5079004;28;20047;-75
2022/11/09 01:14:50;;;;;;;37.55;12.73;;;9.00;99.90;;;;;;5071272;28;20090;-76
2022/11/09 01:17:17;;;;;;;44.95;15.32;;;8.90;99.90;;;;;;5079322;28;20118;-76
2022/11/09 01:19:46;;;;;;;41.67;13.80;;;9.00;99.90;;;;;;5088493;28;20044;-76
2022/11/09 01:22:14;;;;;;;44.00;12.68;;;9.00;99.90;;;;;;5075810;28;20110;-76
2022/11/09 01:24:41;;;;;;;41.47;13.95;;;9.00;99.90;;;;;;5063698;28;20064;-76
2022/11/09 01:27:08;;;;;;;38.75;11.70;;;8.90;99.90;;;;;;5088648;28;20043;-75
2022/11/09 01:29:35;;;;;;;40.63;12.88;;;8.90;99.90;;;;;;5063730;28;20123;-76
2022/11/09 01:32:03;;;;;;;54.08;13.05;;;8.90;99.90;;;;;;5076894;28;20056;-75
2022/11/09 01:34:31;;;;;;;36.17;11.13;;;8.90;99.90;;;;;;5084741;28;20102;-76
2022/11/09 01:37:01;;;;;;;33.83;11.27;;;8.90;99.90;;;;;;5084809;28;20041;-76
2022/11/09 01:39:29;;;;;;;37.53;12.32;;;8.80;99.90;;;;;;5084116;28;20036;-76
2022/11/09 01:41:56;;;;;;;33.80;12.15;;;8.90;99.90;;;;;;5065105;28;20039;-76
2022/11/09 01:44:26;;;;;;;44.70;13.77;;;8.90;99.90;;;;;;5089474;28;20506;-75
2022/11/09 01:47:00;;;;;;;45.15;13.40;;;8.80;99.90;;;;;;5082127;28;20044;-75
2022/11/09 01:49:45;;;;;;;34.72;12.00;;;8.80;99.90;;;;;;5067522;28;20032;-76
2022/11/09 01:52:22;;;;;;;38.45;14.00;;;8.80;99.90;;;;;;5091417;28;20050;-75
2022/11/09 01:55:00;;;;;;;42.17;13.40;;;8.80;99.90;;;;;;5077757;28;20041;-75
2022/11/09 01:57:31;;;;;;;37.08;12.40;;;8.80;99.90;;;;;;5078602;28;20059;-76
2022/11/09 02:00:09;;;;;;;34.95;10.60;;;8.80;99.90;;;;;;5069955;28;20044;-76
2022/11/09 02:02:44;;;;;;;39.90;13.07;;;8.80;99.90;;;;;;5076001;28;20082;-76
2022/11/09 02:05:16;;;;;;;35.35;11.85;;;8.80;99.90;;;;;;5068055;28;20044;-75
2022/11/09 02:07:46;;;;;;;39.97;14.10;;;8.70;99.90;;;;;;5081251;28;20044;-76
2022/11/09 02:10:18;;;;;;;38.58;13.10;;;8.70;99.90;;;;;;5070271;28;20991;-76
2022/11/09 02:12:46;;;;;;;42.35;12.95;;;8.70;99.90;;;;;;5070086;28;20040;-75
2022/11/09 02:15:13;;;;;;;37.10;11.32;;;8.80;99.90;;;;;;5070523;28;20097;-76
2022/11/09 02:17:42;;;;;;;32.33;11.77;;;8.80;99.90;;;;;;5063587;28;20048;-76
2022/11/09 02:20:16;;;;;;;29.85;9.43;;;8.70;99.90;;;;;;5082429;28;20494;-77
2022/11/09 02:22:44;;;;;;;35.20;12.52;;;8.70;99.90;;;;;;5058371;28;20040;-76
2022/11/09 02:25:14;;;;;;;35.72;11.55;;;8.70;99.90;;;;;;5082154;28;20126;-76
2022/11/09 02:27:42;;;;;;;36.88;11.65;;;8.70;99.90;;;;;;5057754;28;20068;-76
2022/11/09 02:30:11;;;;;;;33.53;12.10;;;8.70;99.90;;;;;;5078189;28;20402;-76
2022/11/09 02:32:38;;;;;;;38.53;11.40;;;8.80;99.90;;;;;;5081197;28;20098;-76
2022/11/09 02:35:06;;;;;;;34.08;12.50;;;8.80;99.90;;;;;;5082320;28;20697;-76
2022/11/09 02:37:35;;;;;;;34.13;11.23;;;8.80;99.90;;;;;;5066867;28;20466;-76
2022/11/09 02:40:08;;;;;;;37.28;11.95;;;8.70;99.90;;;;;;5081015;28;20048;-76
2022/11/09 02:42:35;;;;;;;36.90;12.13;;;8.80;99.90;;;;;;5076348;28;20041;-76
2022/11/09 02:45:02;;;;;;;36.17;12.40;;;8.70;99.90;;;;;;5068790;28;20123;-76
2022/11/09 02:47:29;;;;;;;35.10;12.25;;;8.70;99.90;;;;;;5086844;28;20094;-76
2022/11/09 02:49:57;;;;;;;36.30;11.45;;;8.70;99.90;;;;;;5082553;28;20036;-77
2022/11/09 02:52:25;;;;;;;35.95;11.75;;;8.70;99.90;;;;;;5078871;28;20215;-77
2022/11/09 02:54:52;;;;;;;39.70;11.93;;;8.70;99.90;;;;;;5081960;28;20613;-76
2022/11/09 02:57:19;;;;;;;34.95;10.68;;;8.70;99.90;;;;;;5062395;28;20044;-76
2022/11/09 02:59:48;;;;;;;42.63;12.75;;;8.70;99.90;;;;;;5084714;28;20429;-76
2022/11/09 03:02:15;;;;;;;38.88;12.27;;;8.70;99.90;;;;;;5063090;28;22664;-76
2022/11/09 03:04:42;;;;;;;41.78;13.07;;;8.70;99.90;;;;;;5078172;28;20043;-76
2022/11/09 03:07:09;;;;;;;40.13;13.45;;;8.70;99.90;;;;;;5068466;28;20036;-76
2022/11/09 03:09:37;;;;;;;37.85;12.80;;;8.70;99.90;;;;;;5079401;28;20098;-77
2022/11/09 03:12:51;;;;;;;35.17;9.52;;;8.70;99.90;;;;;;5083519;28;20088;-76
2022/11/09 03:15:05;;;;;;;34.58;11.07;;;8.70;99.90;;;;;;5069722;28;20135;-76
2022/11/09 03:17:33;;;;;;;38.70;12.07;;;8.70;99.90;;;;;;5080371;28;20039;-76
2022/11/09 03:20:00;;;;;;;41.85;13.68;;;8.70;99.90;;;;;;5080313;28;20044;-76
2022/11/09 03:22:27;;;;;;;40.53;13.45;;;8.70;99.90;;;;;;5063227;28;20056;-76
2022/11/09 03:24:54;;;;;;;43.60;14.00;;;8.80;99.90;;;;;;5079354;28;20060;-76
2022/11/09 03:27:23;;;;;;;38.33;14.88;;;8.70;99.90;;;;;;5075358;28;20123;-76
2022/11/09 03:29:50;;;;;;;42.58;12.57;;;8.70;99.90;;;;;;5076705;28;20033;-76
2022/11/09 03:32:17;;;;;;;45.35;13.35;;;8.70;99.90;;;;;;5079655;28;20414;-76
2022/11/09 03:34:44;;;;;;;36.92;12.90;;;8.70;99.90;;;;;;5062883;28;20430;-76
2022/11/09 03:37:13;;;;;;;41.45;13.13;;;8.70;99.90;;;;;;5069715;28;20067;-76
2022/11/09 03:39:40;;;;;;;42.63;14.05;;;8.70;99.90;;;;;;5062739;28;20055;-76
2022/11/09 03:42:07;;;;;;;50.83;15.02;;;8.70;99.90;;;;;;5059201;28;20045;-76
2022/11/09 03:44:35;;;;;;;46.30;14.00;;;8.70;99.90;;;;;;5080799;28;20053;-77
2022/11/09 03:47:02;;;;;;;46.25;15.68;;;8.70;99.90;;;;;;5066943;28;20163;-76
2022/11/09 03:49:29;;;;;;;46.53;13.43;;;8.70;99.90;;;;;;5076251;28;20064;-76
2022/11/09 03:51:56;;;;;;;38.75;12.52;;;8.60;99.90;;;;;;5078257;28;20140;-76
2022/11/09 03:54:23;;;;;;;44.15;13.57;;;8.70;99.90;;;;;;5078112;28;20044;-76
2022/11/09 03:56:50;;;;;;;42.75;12.40;;;8.70;99.90;;;;;;5078679;28;20048;-76
2022/11/09 03:59:18;;;;;;;39.05;12.55;;;8.70;99.90;;;;;;5079818;28;20044;-77
2022/11/09 04:01:45;;;;;;;38.45;12.63;;;8.70;99.90;;;;;;5083149;28;20040;-76
2022/11/09 04:04:12;;;;;;;40.20;12.85;;;8.70;99.90;;;;;;5075106;28;20037;-76
2022/11/09 04:06:39;;;;;;;42.28;11.98;;;8.70;99.90;;;;;;5073587;28;21704;-76
2022/11/09 04:09:06;;;;;;;43.15;12.38;;;8.60;99.90;;;;;;5075979;28;20093;-76
2022/11/09 04:11:33;;;;;;;37.05;12.98;;;8.60;99.90;;;;;;5076680;28;20040;-76
2022/11/09 04:14:00;;;;;;;40.85;13.13;;;8.60;99.90;;;;;;5075613;28;20056;-76
2022/11/09 04:16:27;;;;;;;42.47;13.50;;;8.70;99.90;;;;;;5074628;28;20040;-76
2022/11/09 04:18:54;;;;;;;43.20;14.55;;;8.70;99.90;;;;;;5067579;28;20059;-76
2022/11/09 04:21:21;;;;;;;43.17;13.45;;;8.70;99.90;;;;;;5070887;28;20033;-76
2022/11/09 04:23:49;;;;;;;39.15;12.15;;;8.70;99.90;;;;;;5080105;28;20079;-76
2022/11/09 04:26:16;;;;;;;42.30;12.98;;;8.60;99.90;;;;;;5080051;28;20067;-76
2022/11/09 04:28:43;;;;;;;36.63;11.27;;;8.60;99.90;;;;;;5082729;28;20564;-76
2022/11/09 04:31:10;;;;;;;47.67;13.90;;;8.60;99.90;;;;;;5077429;28;20548;-77
2022/11/09 04:33:37;;;;;;;39.13;11.77;;;8.60;99.90;;;;;;5071920;28;20546;-77
2022/11/09 04:36:05;;;;;;;45.55;14.15;;;8.60;99.90;;;;;;5067538;28;20047;-77
2022/11/09 04:38:32;;;;;;;35.97;11.88;;;8.60;99.90;;;;;;5079327;28;20078;-76
2022/11/09 04:41:00;;;;;;;39.65;11.52;;;8.60;99.90;;;;;;5068088;28;20060;-76
2022/11/09 04:43:27;;;;;;;35.42;12.05;;;8.70;99.90;;;;;;5069923;28;20060;-77
2022/11/09 04:45:57;;;;;;;40.55;13.23;;;8.70;99.90;;;;;;5074737;28;20139;-76
2022/11/09 04:48:24;;;;;;;35.28;11.50;;;8.60;99.90;;;;;;5076116;28;20149;-76
2022/11/09 04:50:51;;;;;;;36.30;11.40;;;8.60;99.90;;;;;;5083955;28;20051;-76
2022/11/09 04:53:18;;;;;;;38.63;12.15;;;8.60;99.90;;;;;;5064585;28;20052;-76
2022/11/09 04:55:45;;;;;;;37.67;11.95;;;8.50;99.90;;;;;;5082723;28;20097;-76
2022/11/09 04:58:12;;;;;;;37.20;12.13;;;8.60;99.90;;;;;;5079701;28;20567;-77
2022/11/09 05:00:39;;;;;;;37.53;12.30;;;8.60;99.90;;;;;;5062149;28;20053;-77
2022/11/09 05:03:07;;;;;;;41.78;11.77;;;8.60;99.90;;;;;;5087255;28;20045;-77
2022/11/09 05:05:35;;;;;;;41.08;12.10;;;8.60;99.90;;;;;;5078720;28;20082;-77
2022/11/09 05:08:04;;;;;;;43.67;13.68;;;8.60;99.90;;;;;;5080894;28;20048;-77
2022/11/09 05:10:31;;;;;;;35.88;10.68;;;8.60;99.90;;;;;;5082313;28;20052;-76
2022/11/09 05:13:07;;;;;;;37.10;10.98;;;8.60;99.90;;;;;;5086490;28;20101;-76
2022/11/09 05:15:35;;;;;;;35.22;11.75;;;8.60;99.90;;;;;;5102161;27;20055;-76
2022/11/09 05:18:02;;;;;;;36.65;12.43;;;8.60;99.90;;;;;;5093815;28;20068;-76
2022/11/09 05:20:30;;;;;;;36.70;11.23;;;8.50;99.90;;;;;;5076486;28;20074;-76
2022/11/09 05:25:58;;;;;;;35.10;11.02;;;8.50;99.90;;;;;;5051999;28;20078;-77
2022/11/09 05:28:25;;;;;;;34.63;11.75;;;8.50;99.90;;;;;;5098414;28;20044;-77
2022/11/09 05:30:52;;;;;;;32.58;11.13;;;8.50;99.90;;;;;;5093940;28;20089;-76
2022/11/09 05:33:19;;;;;;;31.42;10.57;;;8.50;99.90;;;;;;5083788;28;20079;-76
2022/11/09 05:35:46;;;;;;;28.70;9.35;;;8.50;99.90;;;;;;5083201;28;20048;-76
2022/11/09 05:38:13;;;;;;;31.20;10.93;;;8.50;99.90;;;;;;5090214;28;20521;-77
2022/11/09 05:40:40;;;;;;;28.80;10.27;;;8.50;99.90;;;;;;5097921;28;20559;-76
2022/11/09 05:43:07;;;;;;;24.52;8.73;;;8.40;99.90;;;;;;5071087;28;20707;-76
2022/11/09 05:45:34;;;;;;;25.15;9.25;;;8.40;99.90;;;;;;5065743;28;20093;-77
2022/11/09 05:48:10;;;;;;;21.42;8.30;;;8.40;99.90;;;;;;5068682;28;20060;-75
2022/11/09 05:50:38;;;;;;;26.20;9.38;;;8.30;99.90;;;;;;5063943;28;20044;-75
2022/11/09 05:53:12;;;;;;;26.08;9.45;;;8.30;99.90;;;;;;5082074;28;20050;-77
2022/11/09 05:55:39;;;;;;;27.52;9.55;;;8.30;99.90;;;;;;5085526;28;20063;-78
2022/11/09 05:58:07;;;;;;;26.35;9.38;;;8.30;99.90;;;;;;5082322;28;20039;-78
2022/11/09 06:00:34;;;;;;;26.63;9.57;;;8.30;99.90;;;;;;5084708;28;20050;-78
2022/11/09 06:03:06;;;;;;;27.85;10.05;;;8.30;99.90;;;;;;5078086;28;20035;-78
2022/11/09 06:05:35;;;;;;;23.88;7.78;;;8.40;99.90;;;;;;5087695;28;20384;-78
2022/11/09 06:08:08;;;;;;;23.30;9.10;;;8.30;99.90;;;;;;5083887;28;20050;-77
2022/11/09 06:10:35;;;;;;;26.77;8.52;;;8.20;99.90;;;;;;5080131;28;20078;-78
2022/11/09 06:13:02;;;;;;;27.13;9.55;;;8.20;99.90;;;;;;5084597;28;20036;-78
2022/11/09 06:15:29;;;;;;;28.60;9.25;;;8.20;99.90;;;;;;5062772;28;20048;-78
2022/11/09 06:17:57;;;;;;;24.38;7.65;;;8.30;99.90;;;;;;5069532;28;20044;-79
2022/11/09 06:20:26;;;;;;;24.65;7.88;;;8.20;99.90;;;;;;5081536;28;20570;-78
2022/11/09 06:23:00;;;;;;;27.58;9.13;;;8.30;99.90;;;;;;5082792;28;20086;-78
2022/11/09 06:25:31;;;;;;;26.20;8.55;;;8.30;99.90;;;;;;5084976;28;20043;-78
2022/11/09 06:27:59;;;;;;;24.70;7.35;;;8.30;99.90;;;;;;5077665;28;20037;-78
2022/11/09 06:30:26;;;;;;;26.30;9.18;;;8.30;99.90;;;;;;5064967;28;20409;-79
2022/11/09 06:33:00;;;;;;;27.05;9.10;;;8.30;99.90;;;;;;5087922;28;20548;-78
2022/11/09 06:35:28;;;;;;;30.70;8.48;;;8.30;99.90;;;;;;5086611;28;20174;-79
2022/11/09 06:37:59;;;;;;;28.02;10.38;;;8.30;99.90;;;;;;5081104;28;20127;-79
2022/11/09 06:40:27;;;;;;;29.23;9.80;;;8.20;99.90;;;;;;5076544;28;20044;-78
2022/11/09 06:42:58;;;;;;;26.63;10.18;;;8.20;99.90;;;;;;5083895;28;20106;-77
2022/11/09 06:45:27;;;;;;;28.50;9.93;;;8.20;99.90;;;;;;5076122;28;20041;-78
2022/11/09 06:47:58;;;;;;;34.55;10.00;;;8.20;99.90;;;;;;5063658;28;20044;-78
2022/11/09 06:50:27;;;;;;;26.42;8.95;;;8.20;99.90;;;;;;5060206;28;20067;-79
2022/11/09 06:52:59;;;;;;;27.85;10.00;;;8.30;99.90;;;;;;5046841;28;20045;-79
2022/11/09 06:55:27;;;;;;;24.80;8.48;;;8.20;99.90;;;;;;5081952;28;20430;-78
2022/11/09 06:57:54;;;;;;;30.58;10.00;;;8.20;99.90;;;;;;5094340;28;20836;-79
2022/11/09 07:00:22;;;;;;;28.08;9.90;;;8.20;99.90;;;;;;5077382;28;20128;-79
2022/11/09 07:02:50;;;;;;;24.73;9.23;;;8.30;99.90;;;;;;5087209;28;20070;-80
2022/11/09 07:05:17;;;;;;;27.33;8.63;;;8.20;99.90;;;;;;5074720;28;20055;-80
2022/11/09 07:07:44;;;;;;;31.33;11.80;;;8.30;99.90;;;;;;5084200;28;20131;-79
2022/11/09 07:10:11;;;;;;;31.75;10.13;;;8.30;99.90;;;;;;5081006;28;20044;-80
2022/11/09 07:12:38;;;;;;;27.77;9.20;;;8.20;99.90;;;;;;5070492;28;20058;-80
2022/11/09 07:15:06;;;;;;;33.80;10.30;;;8.30;99.90;;;;;;5063427;28;20048;-80
2022/11/09 07:17:33;;;;;;;28.50;10.40;;;8.40;99.90;;;;;;5067187;28;20494;-80
2022/11/09 07:20:00;;;;;;;45.70;10.93;;;8.30;99.90;;;;;;5071533;28;20047;-80
2022/11/09 07:22:28;;;;;;;31.05;10.88;;;8.30;99.90;;;;;;5080360;28;20372;-79
2022/11/09 07:24:55;;;;;;;32.53;10.95;;;8.40;99.90;;;;;;5065982;28;20093;-79
2022/11/09 07:27:22;;;;;;;34.85;11.40;;;8.40;99.90;;;;;;5082719;28;20067;-80
2022/11/09 07:29:54;;;;;;;29.92;10.35;;;8.40;99.90;;;;;;5069687;28;20044;-79
2022/11/09 07:32:21;;;;;;;35.05;10.75;;;8.40;99.90;;;;;;5080123;28;20486;-79
2022/11/09 07:35:09;;;;;;;33.55;10.77;;;8.50;99.90;;;;;;5079716;28;20097;-80
2022/11/09 07:37:37;;;;;;;35.03;11.55;;;8.50;99.90;;;;;;5072092;28;20045;-80
2022/11/09 07:40:04;;;;;;;36.42;10.23;;;8.50;99.90;;;;;;5081491;28;20504;-80
2022/11/09 07:42:31;;;;;;;35.65;11.20;;;8.50;99.90;;;;;;5083713;28;20449;-79
2022/11/09 07:44:58;;;;;;;37.10;11.75;;;8.50;99.90;;;;;;5062703;28;20036;-80
2022/11/09 07:47:25;;;;;;;41.00;13.13;;;8.60;99.90;;;;;;5069139;28;20051;-80
2022/11/09 07:49:52;;;;;;;37.28;11.52;;;8.60;99.90;;;;;;5072557;28;20040;-80
2022/11/09 07:52:19;;;;;;;34.22;11.40;;;8.70;99.90;;;;;;5073564;28;20337;-80
2022/11/09 07:54:46;;;;;;;36.70;10.73;;;8.70;99.90;;;;;;5080769;28;20145;-79
2022/11/09 07:57:18;;;;;;;39.50;12.35;;;8.70;99.90;;;;;;5079889;28;20086;-80
2022/11/09 07:59:45;;;;;;;43.40;12.80;;;8.70;99.90;;;;;;5078412;28;20040;-79
2022/11/09 08:02:12;;;;;;;33.60;10.20;;;8.70;99.90;;;;;;5069382;28;20135;-79
2022/11/09 08:04:40;;;;;;;36.95;12.00;;;8.70;99.90;;;;;;5073177;28;20139;-80
2022/11/09 08:07:07;;;;;;;43.50;12.60;;;8.70;99.90;;;;;;5080138;28;20127;-79
2022/11/09 08:09:34;;;;;;;40.58;13.32;;;8.80;99.90;;;;;;5065874;28;20456;-79
2022/11/09 08:12:01;;;;;;;38.95;12.13;;;8.80;99.90;;;;;;5077242;28;20047;-80
2022/11/09 08:14:28;;;;;;;41.15;12.52;;;8.80;99.90;;;;;;5080717;28;20064;-79
2022/11/09 08:16:55;;;;;;;39.83;14.18;;;8.80;99.90;;;;;;5081942;28;20036;-79
2022/11/09 08:19:22;;;;;;;43.33;15.52;;;8.80;99.90;;;;;;5079196;28;20106;-80
2022/11/09 08:21:50;;;;;;;42.78;12.90;;;8.90;99.90;;;;;;5071651;28;20041;-79
2022/11/09 08:24:17;;;;;;;46.92;14.57;;;8.90;99.90;;;;;;5085470;28;20514;-80
2022/11/09 08:26:44;;;;;;;43.90;14.20;;;8.90;99.90;;;;;;5071758;28;20505;-79
2022/11/09 08:29:12;;;;;;;41.25;13.68;;;9.00;99.90;;;;;;5064108;28;20044;-80
2022/11/09 08:31:39;;;;;;;41.08;13.00;;;9.00;99.90;;;;;;5084878;28;20048;-80
2022/11/09 08:34:13;;;;;;;39.30;12.32;;;9.00;99.90;;;;;;5067270;28;20048;-80
2022/11/09 08:36:42;;;;;;;38.25;14.00;;;9.10;99.90;;;;;;5077886;28;20052;-79
2022/11/09 08:39:09;;;;;;;49.58;15.23;;;9.10;99.90;;;;;;5068068;28;20053;-79
2022/11/09 08:41:36;;;;;;;46.40;14.18;;;9.10;99.90;;;;;;5082349;28;20674;-79
2022/11/09 08:44:04;;;;;;;41.88;13.73;;;9.10;99.90;;;;;;5079146;28;20047;-78
2022/11/09 08:46:31;;;;;;;47.63;14.40;;;9.10;99.90;;;;;;5079556;28;20094;-80
2022/11/09 08:49:04;;;;;;;;;;;9.10;99.90;;;;;;5072139;28;20043;-80
2022/11/09 08:51:31;;;;;;;40.30;13.77;;;9.20;99.90;;;;;;5082104;28;20382;-80
2022/11/09 08:53:58;;;;;;;49.90;16.25;;;9.20;99.90;;;;;;5080956;28;20045;-80
2022/11/09 08:56:25;;;;;;;50.08;14.95;;;9.30;99.90;;;;;;5083589;28;20045;-79
2022/11/09 08:58:52;;;;;;;43.50;15.07;;;9.20;99.90;;;;;;5075594;28;20048;-79
2022/11/09 09:01:20;;;;;;;46.58;15.32;;;9.30;99.90;;;;;;5072728;28;20046;-78
2022/11/09 09:03:49;;;;;;;43.63;15.25;;;9.30;99.90;;;;;;5080902;28;20036;-78
2022/11/09 09:06:15;;;;;;;38.78;12.00;;;9.30;99.90;;;;;;5077295;28;20097;-79
2022/11/09 09:08:42;;;;;;;49.35;13.90;;;9.30;99.90;;;;;;5074877;28;20040;-79
2022/11/09 09:11:09;;;;;;;47.42;15.50;;;9.40;99.90;;;;;;5073363;28;20036;-79
2022/11/09 09:13:36;;;;;;;44.47;14.93;;;9.40;99.90;;;;;;5074821;28;20086;-78
2022/11/09 09:16:11;;;;;;;43.33;15.32;;;9.40;99.90;;;;;;5090602;28;20044;-78
2022/11/09 09:18:38;;;;;;;52.22;18.10;;;9.40;99.90;;;;;;5077979;28;20077;-79
2022/11/09 09:21:08;;;;;;;53.92;18.35;;;9.40;99.90;;;;;;5076468;28;20062;-79
2022/11/09 09:23:35;;;;;;;53.78;18.58;;;9.40;99.90;;;;;;5073076;28;20048;-79
2022/11/09 09:26:03;;;;;;;52.88;16.90;;;9.50;99.90;;;;;;5075642;28;20503;-78
2022/11/09 09:28:30;;;;;;;55.22;17.48;;;9.50;99.90;;;;;;5080178;28;20135;-79
2022/11/09 09:30:58;;;;;;;49.92;18.20;;;9.50;99.90;;;;;;5077038;28;20103;-80
2022/11/09 09:33:26;;;;;;;57.95;19.67;;;9.60;99.90;;;;;;5060961;28;20079;-79
2022/11/09 09:35:57;;;;;;;45.85;15.48;;;9.60;99.90;;;;;;5078445;28;20101;-79
2022/11/09 09:38:25;;;;;;;57.13;18.30;;;9.60;99.90;;;;;;5079817;28;20490;-79
2022/11/09 09:40:59;;;;;;;47.20;17.35;;;9.60;99.90;;;;;;5065476;28;20037;-79
2022/11/09 09:43:40;;;;;;;64.45;19.50;;;9.50;99.90;;;;;;5080615;28;20092;-79
2022/11/09 09:46:17;;;;;;;;;;;9.60;99.90;;;;;;5079631;28;20542;-78
2022/11/09 09:48:49;;;;;;;56.35;18.33;;;9.70;99.90;;;;;;5079743;28;20018;-79
2022/11/09 09:51:38;;;;;;;55.35;18.05;;;9.70;99.90;;;;;;5083449;28;20429;-79
2022/11/09 09:54:19;;;;;;;50.75;15.88;;;9.70;99.90;;;;;;5064543;28;20098;-80
2022/11/09 09:56:50;;;;;;;54.60;17.58;;;9.70;99.90;;;;;;5068478;28;20416;-79
2022/11/09 09:59:26;;;;;;;55.08;20.00;;;9.70;99.90;;;;;;5091017;28;20059;-80
2022/11/09 10:01:56;;;;;;;45.10;14.75;;;9.80;99.90;;;;;;5061461;28;20048;-78
2022/11/09 10:04:35;;;;;;;53.55;18.33;;;9.80;99.90;;;;;;5071139;28;20685;-80
2022/11/09 10:07:17;;;;;;;52.95;18.00;;;9.80;99.90;;;;;;5084505;28;20040;-80
2022/11/09 10:09:59;;;;;;;61.70;20.87;;;9.70;99.90;;;;;;5068145;28;20060;-79
2022/11/09 10:12:48;;;;;;;55.88;17.58;;;9.70;99.90;;;;;;5077698;28;20036;-80
2022/11/09 10:15:19;;;;;;;41.95;13.90;;;9.80;99.90;;;;;;5080747;28;20041;-79
2022/11/09 10:18:08;;;;;;;58.63;19.27;;;9.80;99.90;;;;;;5083581;28;20048;-77
2022/11/09 10:20:49;;;;;;;56.20;19.38;;;9.80;99.90;;;;;;5084030;28;20127;-80
2022/11/09 10:23:54;;;;;;;54.28;16.35;;;9.80;99.90;;;;;;5096580;28;20126;-79
2022/11/09 10:26:37;;;;;;;53.47;18.90;;;9.90;99.90;;;;;;5084439;28;20048;-79
2022/11/09 10:29:33;;;;;;;42.75;15.77;;;9.90;99.90;;;;;;5090236;28;20376;-78
2022/11/09 10:32:08;;;;;;;56.50;17.23;;;9.90;99.90;;;;;;5082540;28;20707;-79
2022/11/09 10:34:52;;;;;;;69.35;21.20;;;9.90;99.90;;;;;;5071166;28;20098;-79
2022/11/09 10:37:31;;;;;;;63.75;21.10;;;9.90;99.90;;;;;;5080297;28;20064;-79
2022/11/09 10:40:11;;;;;;;65.15;22.75;;;9.90;99.90;;;;;;5079581;28;20045;-80
2022/11/09 10:43:05;;;;;;;51.15;16.05;;;9.90;99.90;;;;;;5076035;28;20417;-78
2022/11/09 10:46:04;;;;;;;58.60;17.80;;;9.90;99.90;;;;;;5083281;28;20074;-79
2022/11/09 10:48:52;;;;;;;58.00;18.40;;;9.90;99.90;;;;;;5087363;28;20055;-80
2022/11/09 10:51:38;;;;;;;45.33;15.02;;;9.90;99.90;;;;;;5077176;28;20059;-78
2022/11/09 10:54:31;;;;;;;55.75;18.38;;;9.90;99.90;;;;;;5079864;28;20584;-79
2022/11/09 10:57:20;;;;;;;71.22;23.10;;;9.90;99.90;;;;;;5081996;28;20738;-79
2022/11/09 11:00:15;;;;;;;63.10;16.52;;;9.90;99.90;;;;;;5075504;28;20055;-79
2022/11/09 11:03:10;;;;;;;62.95;21.83;;;9.90;99.90;;;;;;5080691;28;20186;-79
2022/11/09 11:06:01;;;;;;;64.43;18.63;;;9.90;99.90;;;;;;5075614;28;20601;-79
2022/11/09 11:09:11;;;;;;;57.85;17.83;;;9.90;99.90;;;;;;5081870;28;20047;-79
2022/11/09 11:12:30;;;;;;;67.07;20.45;;;9.90;99.90;;;;;;5080318;28;20506;-79
2022/11/09 11:15:18;;;;;;;65.28;21.23;;;9.90;99.90;;;;;;5069875;28;20051;-79
2022/11/09 11:18:19;;;;;;;63.70;21.38;;;9.90;99.90;;;;;;5076533;28;20055;-79
2022/11/09 11:21:15;;;;;;;70.20;22.10;;;9.90;99.90;;;;;;5071869;28;20570;-79
2022/11/09 11:24:19;;;;;;;62.40;18.27;;;9.90;99.90;;;;;;5089447;28;20512;-78
2022/11/09 11:27:36;;;;;;;57.47;19.27;;;9.90;99.90;;;;;;5081888;28;20122;-79
2022/11/09 11:30:30;;;;;;;67.13;20.52;;;9.90;99.90;;;;;;5075810;28;20601;-78
2022/11/09 11:33:20;;;;;;;64.82;22.08;;;10.00;99.90;;;;;;5075298;28;20051;-79
2022/11/09 11:36:07;;;;;;;72.80;24.45;;;9.90;99.90;;;;;;5076485;28;20051;-79
2022/11/09 11:39:14;;;;;;;61.35;22.25;;;9.90;99.90;;;;;;5077457;28;20178;-79
2022/11/09 11:42:08;;;;;;;65.70;20.95;;;10.00;99.90;;;;;;5079731;28;20170;-79
2022/11/09 11:44:56;;;;;;;;;;;9.90;99.90;;;;;;5081247;28;20521;-79
2022/11/09 11:48:04;;;;;;;57.95;20.77;;;9.90;99.90;;;;;;5082590;28;19928;-77
2022/11/09 11:50:56;;;;;;;74.40;23.13;;;9.90;99.90;;;;;;5082353;28;20051;-77
2022/11/09 11:54:00;;;;;;;58.70;19.35;;;9.90;99.90;;;;;;5084683;28;20055;-77
2022/11/09 11:56:58;;;;;;;46.67;16.13;;;9.90;99.90;;;;;;5084793;28;20051;-76
2022/11/09 11:59:50;;;;;;;63.80;20.75;;;9.90;99.90;;;;;;5090558;28;20069;-77
2022/11/09 12:02:57;;;;;;;52.65;18.50;;;9.90;99.90;;;;;;5079746;28;20058;-78
2022/11/09 12:06:10;;;;;;;63.78;21.20;;;9.90;99.90;;;;;;5082002;28;20201;-78
2022/11/09 12:09:06;;;;;;;58.80;19.92;;;9.90;99.90;;;;;;5072526;28;20121;-77
2022/11/09 12:12:15;;;;;;;69.32;21.58;;;9.90;99.90;;;;;;5084650;28;20059;-77
2022/11/09 12:15:20;;;;;;;54.15;19.13;;;9.90;99.90;;;;;;5090151;28;20632;-77
2022/11/09 12:18:24;;;;;;;73.30;21.92;;;9.90;99.90;;;;;;5079721;28;20047;-77
2022/11/09 12:21:17;;;;;;;64.78;22.08;;;9.90;99.90;;;;;;5076527;28;20097;-77
2022/11/09 12:24:20;;;;;;;65.32;22.88;;;9.90;99.90;;;;;;5075809;28;20047;-77
2022/11/09 12:27:24;;;;;;;71.38;22.83;;;9.90;99.90;;;;;;5089368;28;20089;-79
2022/11/09 12:30:22;;;;;;;67.35;22.98;;;9.90;99.90;;;;;;5077016;28;20083;-80
2022/11/09 12:33:15;;;;;;;65.65;22.58;;;9.90;99.90;;;;;;5079114;28;21114;-80
2022/11/09 12:36:19;;;;;;;64.47;20.42;;;9.90;99.90;;;;;;5086571;28;20116;-80
2022/11/09 12:39:10;;;;;;;63.63;22.92;;;9.90;99.90;;;;;;5076775;28;20051;-80
2022/11/09 12:42:02;;;;;;;67.57;24.77;;;9.90;99.90;;;;;;5073705;28;20044;-80
2022/11/09 12:45:05;;;;;;;64.60;22.73;;;9.90;99.90;;;;;;5071673;28;20056;-79
2022/11/09 12:47:53;;;;;;;68.47;22.42;;;9.90;99.90;;;;;;5087390;28;20513;-79
2022/11/09 12:50:40;;;;;;;62.65;20.85;;;9.90;99.90;;;;;;5078925;28;20063;-78
2022/11/09 12:53:33;;;;;;;66.43;21.98;;;9.90;99.90;;;;;;5080162;28;20051;-79
2022/11/09 12:56:28;;;;;;;64.35;20.65;;;9.90;99.90;;;;;;5077638;28;20051;-80
2022/11/09 12:59:25;;;;;;;64.75;23.80;;;10.00;99.90;;;;;;5076345;28;20052;-80
2022/11/09 13:02:26;;;;;;;64.07;22.67;;;10.00;99.90;;;;;;5091525;28;20525;-79
2022/11/09 13:05:33;;;;;;;65.07;23.25;;;10.00;99.90;;;;;;5081742;28;20102;-80
2022/11/09 13:08:30;;;;;;;66.45;22.13;;;10.00;99.90;;;;;;5088883;28;24506;-79
2022/11/09 13:11:16;;;;;;;69.60;23.17;;;10.00;99.90;;;;;;5087416;28;20054;-80
2022/11/09 13:14:20;;;;;;;78.40;24.02;;;9.90;99.90;;;;;;5085242;28;20789;-78
2022/11/09 13:17:24;;;;;;;72.18;23.73;;;9.90;99.90;;;;;;5086226;28;20059;-79